sensor_id;sensor_type;location;lat;lon;timestamp;P1;durP1;ratioP1;P2;durP2;ratioP2
14181;SDS011;7171;50.936;6.764;2022-08-19T00:00:36;3.47;;;3.10;;
14181;SDS011;7171;50.936;6.764;2022-08-19T00:03:04;3.10;;;2.80;;
14181;SDS011;7171;50.936;6.764;2022-08-19T00:05:32;5.32;;;3.20;;
14181;SDS011;7171;50.936;6.764;2022-08-19T00:07:59;3.35;;;3.05;;
14181;SDS011;7171;50.936;6.764;2022-08-19T00:10:27;3.92;;;3.38;;
14181;SDS011;7171;50.936;6.764;2022-08-19T00:12:54;4.10;;;3.45;;
14181;SDS011;7171;50.936;6.764;2022-08-19T00:15:21;3.40;;;3.10;;
14181;SDS011;7171;50.936;6.764;2022-08-19T00:17:48;3.58;;;3.13;;
14181;SDS011;7171;50.936;6.764;2022-08-19T00:20:16;4.38;;;3.90;;
14181;SDS011;7171;50.936;6.764;2022-08-19T00:22:45;3.70;;;3.40;;
14181;SDS011;7171;50.936;6.764;2022-08-19T00:25:13;4.38;;;3.75;;
14181;SDS011;7171;50.936;6.764;2022-08-19T00:27:42;4.30;;;3.90;;
14181;SDS011;7171;50.936;6.764;2022-08-19T00:30:09;4.20;;;3.80;;
14181;SDS011;7171;50.936;6.764;2022-08-19T00:32:37;5.75;;;3.63;;
14181;SDS011;7171;50.936;6.764;2022-08-19T00:35:04;6.60;;;4.47;;
14181;SDS011;7171;50.936;6.764;2022-08-19T00:37:31;4.05;;;3.63;;
14181;SDS011;7171;50.936;6.764;2022-08-19T00:39:59;5.13;;;4.63;;
14181;SDS011;7171;50.936;6.764;2022-08-19T00:42:28;4.70;;;4.18;;
14181;SDS011;7171;50.936;6.764;2022-08-19T00:44:56;4.47;;;3.95;;
14181;SDS011;7171;50.936;6.764;2022-08-19T00:47:25;4.38;;;3.97;;
14181;SDS011;7171;50.936;6.764;2022-08-19T00:49:53;6.00;;;4.18;;
14181;SDS011;7171;50.936;6.764;2022-08-19T00:52:23;6.15;;;4.38;;
14181;SDS011;7171;50.936;6.764;2022-08-19T00:54:54;4.45;;;4.05;;
14181;SDS011;7171;50.936;6.764;2022-08-19T00:57:23;5.28;;;4.57;;
14181;SDS011;7171;50.936;6.764;2022-08-19T00:59:54;5.10;;;4.60;;
14181;SDS011;7171;50.936;6.764;2022-08-19T01:02:24;5.25;;;4.60;;
14181;SDS011;7171;50.936;6.764;2022-08-19T01:04:52;5.45;;;4.93;;
14181;SDS011;7171;50.936;6.764;2022-08-19T01:07:19;6.15;;;5.55;;
14181;SDS011;7171;50.936;6.764;2022-08-19T01:09:46;6.95;;;5.13;;
14181;SDS011;7171;50.936;6.764;2022-08-19T01:12:13;6.47;;;5.75;;
14181;SDS011;7171;50.936;6.764;2022-08-19T01:14:40;6.72;;;5.03;;
14181;SDS011;7171;50.936;6.764;2022-08-19T01:17:09;8.05;;;5.82;;
14181;SDS011;7171;50.936;6.764;2022-08-19T01:19:37;6.82;;;5.80;;
14181;SDS011;7171;50.936;6.764;2022-08-19T01:22:08;4.90;;;4.50;;
14181;SDS011;7171;50.936;6.764;2022-08-19T01:24:39;6.30;;;5.10;;
14181;SDS011;7171;50.936;6.764;2022-08-19T01:27:07;5.78;;;5.20;;
14181;SDS011;7171;50.936;6.764;2022-08-19T01:29:36;5.95;;;5.13;;
14181;SDS011;7171;50.936;6.764;2022-08-19T01:32:04;7.13;;;5.72;;
14181;SDS011;7171;50.936;6.764;2022-08-19T01:34:31;6.03;;;5.38;;
14181;SDS011;7171;50.936;6.764;2022-08-19T01:36:59;5.80;;;5.13;;
14181;SDS011;7171;50.936;6.764;2022-08-19T01:39:31;6.45;;;5.72;;
14181;SDS011;7171;50.936;6.764;2022-08-19T01:41:59;6.10;;;5.07;;
14181;SDS011;7171;50.936;6.764;2022-08-19T01:44:28;6.68;;;5.60;;
14181;SDS011;7171;50.936;6.764;2022-08-19T01:46:55;6.57;;;5.88;;
14181;SDS011;7171;50.936;6.764;2022-08-19T01:49:22;7.10;;;5.97;;
14181;SDS011;7171;50.936;6.764;2022-08-19T01:51:51;6.78;;;5.93;;
14181;SDS011;7171;50.936;6.764;2022-08-19T01:54:19;7.70;;;5.65;;
14181;SDS011;7171;50.936;6.764;2022-08-19T01:56:47;8.73;;;6.18;;
14181;SDS011;7171;50.936;6.764;2022-08-19T01:59:16;8.20;;;6.43;;
14181;SDS011;7171;50.936;6.764;2022-08-19T02:01:45;6.65;;;5.93;;
14181;SDS011;7171;50.936;6.764;2022-08-19T02:04:12;8.07;;;6.50;;
14181;SDS011;7171;50.936;6.764;2022-08-19T02:06:39;7.60;;;6.32;;
14181;SDS011;7171;50.936;6.764;2022-08-19T02:09:06;8.57;;;6.97;;
14181;SDS011;7171;50.936;6.764;2022-08-19T02:11:34;6.80;;;6.10;;
14181;SDS011;7171;50.936;6.764;2022-08-19T02:14:03;8.75;;;6.63;;
14181;SDS011;7171;50.936;6.764;2022-08-19T02:16:34;7.88;;;6.75;;
14181;SDS011;7171;50.936;6.764;2022-08-19T02:19:03;6.80;;;6.07;;
14181;SDS011;7171;50.936;6.764;2022-08-19T02:21:30;6.35;;;5.70;;
14181;SDS011;7171;50.936;6.764;2022-08-19T02:23:57;7.07;;;5.63;;
14181;SDS011;7171;50.936;6.764;2022-08-19T02:26:24;7.20;;;6.18;;
14181;SDS011;7171;50.936;6.764;2022-08-19T02:28:52;9.52;;;6.55;;
14181;SDS011;7171;50.936;6.764;2022-08-19T02:31:20;7.72;;;6.25;;
14181;SDS011;7171;50.936;6.764;2022-08-19T02:33:51;7.07;;;6.18;;
14181;SDS011;7171;50.936;6.764;2022-08-19T02:36:18;7.82;;;6.70;;
14181;SDS011;7171;50.936;6.764;2022-08-19T02:38:45;6.05;;;5.45;;
14181;SDS011;7171;50.936;6.764;2022-08-19T02:41:14;6.30;;;5.47;;
14181;SDS011;7171;50.936;6.764;2022-08-19T02:43:43;7.10;;;6.40;;
14181;SDS011;7171;50.936;6.764;2022-08-19T02:46:13;7.20;;;6.32;;
14181;SDS011;7171;50.936;6.764;2022-08-19T02:48:42;7.93;;;6.45;;
14181;SDS011;7171;50.936;6.764;2022-08-19T02:51:14;7.53;;;6.50;;
14181;SDS011;7171;50.936;6.764;2022-08-19T02:53:42;8.52;;;6.55;;
14181;SDS011;7171;50.936;6.764;2022-08-19T02:56:09;8.98;;;6.97;;
14181;SDS011;7171;50.936;6.764;2022-08-19T02:58:36;8.10;;;6.75;;
14181;SDS011;7171;50.936;6.764;2022-08-19T03:01:03;9.70;;;7.53;;
14181;SDS011;7171;50.936;6.764;2022-08-19T03:03:30;9.77;;;7.47;;
14181;SDS011;7171;50.936;6.764;2022-08-19T03:06:07;7.85;;;7.05;;
14181;SDS011;7171;50.936;6.764;2022-08-19T03:08:37;8.15;;;6.72;;
14181;SDS011;7171;50.936;6.764;2022-08-19T03:11:05;9.70;;;7.13;;
14181;SDS011;7171;50.936;6.764;2022-08-19T03:13:32;9.02;;;7.22;;
14181;SDS011;7171;50.936;6.764;2022-08-19T03:15:59;8.38;;;7.38;;
14181;SDS011;7171;50.936;6.764;2022-08-19T03:18:26;7.60;;;6.90;;
14181;SDS011;7171;50.936;6.764;2022-08-19T03:20:53;12.48;;;7.45;;
14181;SDS011;7171;50.936;6.764;2022-08-19T03:23:20;8.10;;;6.93;;
14181;SDS011;7171;50.936;6.764;2022-08-19T03:25:51;8.02;;;7.15;;
14181;SDS011;7171;50.936;6.764;2022-08-19T03:28:19;9.00;;;7.65;;
14181;SDS011;7171;50.936;6.764;2022-08-19T03:30:56;10.05;;;8.48;;
14181;SDS011;7171;50.936;6.764;2022-08-19T03:33:25;8.48;;;7.57;;
14181;SDS011;7171;50.936;6.764;2022-08-19T03:35:59;11.23;;;8.73;;
14181;SDS011;7171;50.936;6.764;2022-08-19T03:38:27;11.93;;;9.15;;
14181;SDS011;7171;50.936;6.764;2022-08-19T03:40:55;11.45;;;9.07;;
14181;SDS011;7171;50.936;6.764;2022-08-19T03:43:22;10.57;;;9.02;;
14181;SDS011;7171;50.936;6.764;2022-08-19T03:45:49;12.95;;;10.07;;
14181;SDS011;7171;50.936;6.764;2022-08-19T03:48:27;10.10;;;9.07;;
14181;SDS011;7171;50.936;6.764;2022-08-19T03:50:55;12.20;;;10.00;;
14181;SDS011;7171;50.936;6.764;2022-08-19T03:53:23;12.10;;;9.68;;
14181;SDS011;7171;50.936;6.764;2022-08-19T03:55:50;15.43;;;11.27;;
14181;SDS011;7171;50.936;6.764;2022-08-19T03:58:19;12.25;;;10.65;;
14181;SDS011;7171;50.936;6.764;2022-08-19T04:00:46;15.88;;;11.57;;
14181;SDS011;7171;50.936;6.764;2022-08-19T04:03:13;15.50;;;12.52;;
14181;SDS011;7171;50.936;6.764;2022-08-19T04:05:39;12.80;;;10.93;;
14181;SDS011;7171;50.936;6.764;2022-08-19T04:08:06;15.02;;;11.50;;
14181;SDS011;7171;50.936;6.764;2022-08-19T04:10:34;14.70;;;11.75;;
14181;SDS011;7171;50.936;6.764;2022-08-19T04:13:02;17.27;;;12.15;;
14181;SDS011;7171;50.936;6.764;2022-08-19T04:15:31;14.75;;;12.00;;
14181;SDS011;7171;50.936;6.764;2022-08-19T04:18:04;14.13;;;12.20;;
14181;SDS011;7171;50.936;6.764;2022-08-19T04:20:32;13.07;;;11.63;;
14181;SDS011;7171;50.936;6.764;2022-08-19T04:22:59;15.20;;;12.63;;
14181;SDS011;7171;50.936;6.764;2022-08-19T04:25:26;16.35;;;12.68;;
14181;SDS011;7171;50.936;6.764;2022-08-19T04:27:52;15.30;;;12.75;;
14181;SDS011;7171;50.936;6.764;2022-08-19T04:30:19;14.52;;;12.05;;
14181;SDS011;7171;50.936;6.764;2022-08-19T04:32:48;14.02;;;11.13;;
14181;SDS011;7171;50.936;6.764;2022-08-19T04:35:15;17.50;;;12.73;;
14181;SDS011;7171;50.936;6.764;2022-08-19T04:37:42;15.05;;;12.23;;
14181;SDS011;7171;50.936;6.764;2022-08-19T04:40:09;15.50;;;11.95;;
14181;SDS011;7171;50.936;6.764;2022-08-19T04:42:54;16.23;;;11.60;;
14181;SDS011;7171;50.936;6.764;2022-08-19T04:45:21;13.88;;;11.63;;
14181;SDS011;7171;50.936;6.764;2022-08-19T04:47:53;13.48;;;11.63;;
14181;SDS011;7171;50.936;6.764;2022-08-19T04:50:22;13.00;;;11.38;;
14181;SDS011;7171;50.936;6.764;2022-08-19T04:52:49;16.60;;;13.05;;
14181;SDS011;7171;50.936;6.764;2022-08-19T04:55:17;12.55;;;9.75;;
14181;SDS011;7171;50.936;6.764;2022-08-19T04:57:44;15.20;;;11.20;;
14181;SDS011;7171;50.936;6.764;2022-08-19T05:00:11;13.80;;;11.05;;
14181;SDS011;7171;50.936;6.764;2022-08-19T05:02:38;16.85;;;10.95;;
14181;SDS011;7171;50.936;6.764;2022-08-19T05:05:07;12.80;;;10.60;;
14181;SDS011;7171;50.936;6.764;2022-08-19T05:07:34;14.63;;;11.25;;
14181;SDS011;7171;50.936;6.764;2022-08-19T05:10:01;12.73;;;11.02;;
14181;SDS011;7171;50.936;6.764;2022-08-19T05:12:29;17.13;;;11.98;;
14181;SDS011;7171;50.936;6.764;2022-08-19T05:14:56;15.57;;;11.00;;
14181;SDS011;7171;50.936;6.764;2022-08-19T05:17:24;14.02;;;10.65;;
14181;SDS011;7171;50.936;6.764;2022-08-19T05:19:51;14.82;;;11.82;;
14181;SDS011;7171;50.936;6.764;2022-08-19T05:22:37;12.07;;;10.05;;
14181;SDS011;7171;50.936;6.764;2022-08-19T05:25:06;15.98;;;11.57;;
14181;SDS011;7171;50.936;6.764;2022-08-19T05:27:34;15.40;;;11.23;;
14181;SDS011;7171;50.936;6.764;2022-08-19T05:30:01;13.02;;;10.80;;
14181;SDS011;7171;50.936;6.764;2022-08-19T05:32:28;16.10;;;11.73;;
14181;SDS011;7171;50.936;6.764;2022-08-19T05:34:55;15.85;;;11.60;;
14181;SDS011;7171;50.936;6.764;2022-08-19T05:37:22;13.25;;;11.55;;
14181;SDS011;7171;50.936;6.764;2022-08-19T05:39:53;14.60;;;10.88;;
14181;SDS011;7171;50.936;6.764;2022-08-19T05:42:20;14.82;;;10.98;;
14181;SDS011;7171;50.936;6.764;2022-08-19T05:44:48;16.58;;;12.18;;
14181;SDS011;7171;50.936;6.764;2022-08-19T05:47:16;16.23;;;11.45;;
14181;SDS011;7171;50.936;6.764;2022-08-19T05:49:44;13.90;;;11.52;;
14181;SDS011;7171;50.936;6.764;2022-08-19T05:52:12;13.85;;;10.55;;
14181;SDS011;7171;50.936;6.764;2022-08-19T05:54:40;13.95;;;11.45;;
14181;SDS011;7171;50.936;6.764;2022-08-19T05:57:09;15.10;;;10.57;;
14181;SDS011;7171;50.936;6.764;2022-08-19T05:59:36;16.80;;;11.90;;
14181;SDS011;7171;50.936;6.764;2022-08-19T06:02:03;15.65;;;11.25;;
14181;SDS011;7171;50.936;6.764;2022-08-19T06:04:31;16.25;;;11.90;;
14181;SDS011;7171;50.936;6.764;2022-08-19T06:06:58;14.35;;;11.80;;
14181;SDS011;7171;50.936;6.764;2022-08-19T06:09:26;14.88;;;11.73;;
14181;SDS011;7171;50.936;6.764;2022-08-19T06:11:54;15.88;;;11.73;;
14181;SDS011;7171;50.936;6.764;2022-08-19T06:14:26;13.70;;;11.13;;
14181;SDS011;7171;50.936;6.764;2022-08-19T06:16:54;14.02;;;11.90;;
14181;SDS011;7171;50.936;6.764;2022-08-19T06:19:22;14.65;;;11.77;;
14181;SDS011;7171;50.936;6.764;2022-08-19T06:21:50;15.40;;;11.48;;
14181;SDS011;7171;50.936;6.764;2022-08-19T06:24:19;18.23;;;13.10;;
14181;SDS011;7171;50.936;6.764;2022-08-19T06:26:48;16.02;;;11.85;;
14181;SDS011;7171;50.936;6.764;2022-08-19T06:29:18;15.90;;;12.90;;
14181;SDS011;7171;50.936;6.764;2022-08-19T06:31:47;17.73;;;11.90;;
14181;SDS011;7171;50.936;6.764;2022-08-19T06:34:15;15.23;;;11.52;;
14181;SDS011;7171;50.936;6.764;2022-08-19T06:36:44;17.05;;;12.00;;
14181;SDS011;7171;50.936;6.764;2022-08-19T06:39:13;15.45;;;12.25;;
14181;SDS011;7171;50.936;6.764;2022-08-19T06:41:43;17.02;;;12.38;;
14181;SDS011;7171;50.936;6.764;2022-08-19T06:44:11;18.30;;;12.25;;
14181;SDS011;7171;50.936;6.764;2022-08-19T06:46:38;16.98;;;12.52;;
14181;SDS011;7171;50.936;6.764;2022-08-19T06:49:08;16.83;;;13.07;;
14181;SDS011;7171;50.936;6.764;2022-08-19T06:51:38;17.00;;;12.77;;
14181;SDS011;7171;50.936;6.764;2022-08-19T06:54:06;15.85;;;12.05;;
14181;SDS011;7171;50.936;6.764;2022-08-19T06:56:34;21.33;;;13.18;;
14181;SDS011;7171;50.936;6.764;2022-08-19T06:59:02;15.70;;;12.35;;
14181;SDS011;7171;50.936;6.764;2022-08-19T07:01:33;14.18;;;11.65;;
14181;SDS011;7171;50.936;6.764;2022-08-19T07:04:02;18.83;;;12.82;;
14181;SDS011;7171;50.936;6.764;2022-08-19T07:06:31;17.13;;;13.05;;
14181;SDS011;7171;50.936;6.764;2022-08-19T07:08:58;19.08;;;13.52;;
14181;SDS011;7171;50.936;6.764;2022-08-19T07:11:25;16.20;;;12.00;;
14181;SDS011;7171;50.936;6.764;2022-08-19T07:13:53;15.88;;;12.50;;
14181;SDS011;7171;50.936;6.764;2022-08-19T07:16:20;17.05;;;12.63;;
14181;SDS011;7171;50.936;6.764;2022-08-19T07:18:47;18.25;;;13.63;;
14181;SDS011;7171;50.936;6.764;2022-08-19T07:21:15;17.15;;;11.98;;
14181;SDS011;7171;50.936;6.764;2022-08-19T07:23:45;18.58;;;13.13;;
14181;SDS011;7171;50.936;6.764;2022-08-19T07:26:13;16.48;;;12.57;;
14181;SDS011;7171;50.936;6.764;2022-08-19T07:28:41;17.65;;;14.00;;
14181;SDS011;7171;50.936;6.764;2022-08-19T07:31:10;19.15;;;12.75;;
14181;SDS011;7171;50.936;6.764;2022-08-19T07:33:38;19.58;;;13.57;;
14181;SDS011;7171;50.936;6.764;2022-08-19T07:36:06;20.25;;;14.02;;
14181;SDS011;7171;50.936;6.764;2022-08-19T07:38:35;18.58;;;13.70;;
14181;SDS011;7171;50.936;6.764;2022-08-19T07:41:03;18.00;;;12.77;;
14181;SDS011;7171;50.936;6.764;2022-08-19T07:43:30;17.15;;;13.10;;
14181;SDS011;7171;50.936;6.764;2022-08-19T07:45:57;17.30;;;12.57;;
14181;SDS011;7171;50.936;6.764;2022-08-19T07:48:24;17.70;;;13.20;;
14181;SDS011;7171;50.936;6.764;2022-08-19T07:50:52;22.45;;;12.68;;
14181;SDS011;7171;50.936;6.764;2022-08-19T07:53:19;22.02;;;13.35;;
14181;SDS011;7171;50.936;6.764;2022-08-19T07:55:46;18.63;;;13.65;;
14181;SDS011;7171;50.936;6.764;2022-08-19T07:58:15;22.15;;;14.90;;
14181;SDS011;7171;50.936;6.764;2022-08-19T08:00:46;23.48;;;13.77;;
14181;SDS011;7171;50.936;6.764;2022-08-19T08:03:15;25.30;;;15.35;;
14181;SDS011;7171;50.936;6.764;2022-08-19T08:05:44;26.30;;;15.23;;
14181;SDS011;7171;50.936;6.764;2022-08-19T08:08:28;24.25;;;13.45;;
14181;SDS011;7171;50.936;6.764;2022-08-19T08:11:14;21.95;;;14.02;;
14181;SDS011;7171;50.936;6.764;2022-08-19T08:13:44;23.33;;;14.38;;
14181;SDS011;7171;50.936;6.764;2022-08-19T08:16:11;24.60;;;15.18;;
14181;SDS011;7171;50.936;6.764;2022-08-19T08:18:38;22.60;;;15.18;;
14181;SDS011;7171;50.936;6.764;2022-08-19T08:21:07;25.15;;;15.73;;
14181;SDS011;7171;50.936;6.764;2022-08-19T08:23:34;20.58;;;13.65;;
14181;SDS011;7171;50.936;6.764;2022-08-19T08:26:01;23.85;;;16.15;;
14181;SDS011;7171;50.936;6.764;2022-08-19T08:28:29;21.17;;;15.65;;
14181;SDS011;7171;50.936;6.764;2022-08-19T08:30:58;24.77;;;15.52;;
14181;SDS011;7171;50.936;6.764;2022-08-19T08:33:25;23.77;;;15.38;;
14181;SDS011;7171;50.936;6.764;2022-08-19T08:35:53;20.55;;;14.00;;
14181;SDS011;7171;50.936;6.764;2022-08-19T08:38:20;19.05;;;13.43;;
14181;SDS011;7171;50.936;6.764;2022-08-19T08:40:48;22.67;;;15.15;;
14181;SDS011;7171;50.936;6.764;2022-08-19T08:43:22;20.88;;;13.63;;
14181;SDS011;7171;50.936;6.764;2022-08-19T08:45:53;26.42;;;15.95;;
14181;SDS011;7171;50.936;6.764;2022-08-19T08:48:29;22.55;;;14.57;;
14181;SDS011;7171;50.936;6.764;2022-08-19T08:51:02;19.77;;;14.07;;
14181;SDS011;7171;50.936;6.764;2022-08-19T08:53:31;23.35;;;14.95;;
14181;SDS011;7171;50.936;6.764;2022-08-19T08:56:01;22.48;;;13.98;;
14181;SDS011;7171;50.936;6.764;2022-08-19T08:58:31;21.52;;;14.02;;
14181;SDS011;7171;50.936;6.764;2022-08-19T09:01:10;18.63;;;12.60;;
14181;SDS011;7171;50.936;6.764;2022-08-19T09:03:39;16.98;;;12.45;;
14181;SDS011;7171;50.936;6.764;2022-08-19T09:06:07;18.05;;;12.63;;
14181;SDS011;7171;50.936;6.764;2022-08-19T09:08:43;21.13;;;12.75;;
14181;SDS011;7171;50.936;6.764;2022-08-19T09:11:19;15.38;;;11.00;;
14181;SDS011;7171;50.936;6.764;2022-08-19T09:13:59;15.82;;;11.27;;
14181;SDS011;7171;50.936;6.764;2022-08-19T09:16:34;18.00;;;12.82;;
14181;SDS011;7171;50.936;6.764;2022-08-19T09:19:04;19.92;;;13.38;;
14181;SDS011;7171;50.936;6.764;2022-08-19T09:21:32;15.35;;;11.25;;
14181;SDS011;7171;50.936;6.764;2022-08-19T09:23:59;14.77;;;10.73;;
14181;SDS011;7171;50.936;6.764;2022-08-19T09:26:27;12.57;;;9.90;;
14181;SDS011;7171;50.936;6.764;2022-08-19T09:28:54;13.55;;;9.88;;
14181;SDS011;7171;50.936;6.764;2022-08-19T09:31:23;14.35;;;9.88;;
14181;SDS011;7171;50.936;6.764;2022-08-19T09:33:52;14.10;;;9.63;;
14181;SDS011;7171;50.936;6.764;2022-08-19T09:36:22;9.95;;;7.60;;
14181;SDS011;7171;50.936;6.764;2022-08-19T09:38:49;9.82;;;7.30;;
14181;SDS011;7171;50.936;6.764;2022-08-19T09:41:18;9.77;;;7.82;;
14181;SDS011;7171;50.936;6.764;2022-08-19T09:43:46;9.00;;;6.57;;
14181;SDS011;7171;50.936;6.764;2022-08-19T09:46:17;9.65;;;7.18;;
14181;SDS011;7171;50.936;6.764;2022-08-19T09:48:46;8.25;;;6.03;;
14181;SDS011;7171;50.936;6.764;2022-08-19T09:51:15;11.63;;;7.13;;
14181;SDS011;7171;50.936;6.764;2022-08-19T09:53:45;10.13;;;6.65;;
14181;SDS011;7171;50.936;6.764;2022-08-19T09:56:14;5.50;;;4.90;;
14181;SDS011;7171;50.936;6.764;2022-08-19T09:58:42;7.53;;;5.60;;
14181;SDS011;7171;50.936;6.764;2022-08-19T10:01:09;7.65;;;5.53;;
14181;SDS011;7171;50.936;6.764;2022-08-19T10:03:41;7.07;;;5.38;;
14181;SDS011;7171;50.936;6.764;2022-08-19T10:06:07;6.63;;;5.47;;
14181;SDS011;7171;50.936;6.764;2022-08-19T10:08:36;6.95;;;5.75;;
14181;SDS011;7171;50.936;6.764;2022-08-19T10:11:04;8.50;;;6.03;;
14181;SDS011;7171;50.936;6.764;2022-08-19T10:13:31;10.80;;;7.50;;
14181;SDS011;7171;50.936;6.764;2022-08-19T10:16:02;10.23;;;8.50;;
14181;SDS011;7171;50.936;6.764;2022-08-19T10:18:31;10.00;;;7.90;;
14181;SDS011;7171;50.936;6.764;2022-08-19T10:21:02;11.77;;;8.77;;
14181;SDS011;7171;50.936;6.764;2022-08-19T10:23:30;9.98;;;7.40;;
14181;SDS011;7171;50.936;6.764;2022-08-19T10:26:00;8.98;;;7.32;;
14181;SDS011;7171;50.936;6.764;2022-08-19T10:28:28;9.32;;;7.47;;
14181;SDS011;7171;50.936;6.764;2022-08-19T10:30:56;11.98;;;8.25;;
14181;SDS011;7171;50.936;6.764;2022-08-19T10:33:24;9.70;;;7.85;;
14181;SDS011;7171;50.936;6.764;2022-08-19T10:35:57;11.63;;;8.43;;
14181;SDS011;7171;50.936;6.764;2022-08-19T10:38:25;7.43;;;6.50;;
14181;SDS011;7171;50.936;6.764;2022-08-19T10:40:53;8.18;;;6.00;;
14181;SDS011;7171;50.936;6.764;2022-08-19T10:43:21;7.25;;;6.25;;
14181;SDS011;7171;50.936;6.764;2022-08-19T10:45:51;8.85;;;6.25;;
14181;SDS011;7171;50.936;6.764;2022-08-19T10:48:21;9.02;;;6.03;;
14181;SDS011;7171;50.936;6.764;2022-08-19T10:50:47;7.68;;;5.40;;
14181;SDS011;7171;50.936;6.764;2022-08-19T10:53:32;6.35;;;5.30;;
14181;SDS011;7171;50.936;6.764;2022-08-19T10:55:58;9.27;;;7.20;;
14181;SDS011;7171;50.936;6.764;2022-08-19T10:58:44;7.05;;;6.30;;
14181;SDS011;7171;50.936;6.764;2022-08-19T11:01:11;8.35;;;6.93;;
14181;SDS011;7171;50.936;6.764;2022-08-19T11:03:37;7.63;;;6.07;;
14181;SDS011;7171;50.936;6.764;2022-08-19T11:06:05;10.02;;;6.43;;
14181;SDS011;7171;50.936;6.764;2022-08-19T11:08:33;7.22;;;6.13;;
14181;SDS011;7171;50.936;6.764;2022-08-19T11:11:02;7.88;;;6.38;;
14181;SDS011;7171;50.936;6.764;2022-08-19T11:13:31;6.47;;;5.18;;
14181;SDS011;7171;50.936;6.764;2022-08-19T11:16:04;6.40;;;5.78;;
14181;SDS011;7171;50.936;6.764;2022-08-19T11:18:33;6.93;;;5.93;;
14181;SDS011;7171;50.936;6.764;2022-08-19T11:21:11;9.43;;;6.43;;
14181;SDS011;7171;50.936;6.764;2022-08-19T11:23:42;7.13;;;6.43;;
14181;SDS011;7171;50.936;6.764;2022-08-19T11:26:09;8.93;;;6.03;;
14181;SDS011;7171;50.936;6.764;2022-08-19T11:28:37;7.10;;;5.15;;
14181;SDS011;7171;50.936;6.764;2022-08-19T11:31:05;9.20;;;5.13;;
14181;SDS011;7171;50.936;6.764;2022-08-19T11:33:36;7.18;;;5.57;;
14181;SDS011;7171;50.936;6.764;2022-08-19T11:36:03;6.22;;;5.63;;
14181;SDS011;7171;50.936;6.764;2022-08-19T11:38:30;7.38;;;6.05;;
14181;SDS011;7171;50.936;6.764;2022-08-19T11:40:58;7.70;;;5.40;;
14181;SDS011;7171;50.936;6.764;2022-08-19T11:43:27;5.47;;;4.97;;
14181;SDS011;7171;50.936;6.764;2022-08-19T11:45:54;6.07;;;5.03;;
14181;SDS011;7171;50.936;6.764;2022-08-19T11:48:23;4.07;;;3.67;;
14181;SDS011;7171;50.936;6.764;2022-08-19T11:50:50;6.38;;;5.18;;
14181;SDS011;7171;50.936;6.764;2022-08-19T11:53:20;5.70;;;5.10;;
14181;SDS011;7171;50.936;6.764;2022-08-19T11:55:47;4.18;;;3.78;;
14181;SDS011;7171;50.936;6.764;2022-08-19T11:58:14;5.80;;;5.20;;
14181;SDS011;7171;50.936;6.764;2022-08-19T12:00:43;7.60;;;5.07;;
14181;SDS011;7171;50.936;6.764;2022-08-19T12:03:11;5.68;;;4.43;;
14181;SDS011;7171;50.936;6.764;2022-08-19T12:05:40;5.90;;;5.30;;
14181;SDS011;7171;50.936;6.764;2022-08-19T12:08:07;6.22;;;5.40;;
14181;SDS011;7171;50.936;6.764;2022-08-19T12:10:34;11.65;;;5.85;;
14181;SDS011;7171;50.936;6.764;2022-08-19T12:13:01;6.40;;;5.70;;
14181;SDS011;7171;50.936;6.764;2022-08-19T12:15:28;7.00;;;4.90;;
14181;SDS011;7171;50.936;6.764;2022-08-19T12:17:56;8.52;;;5.47;;
14181;SDS011;7171;50.936;6.764;2022-08-19T12:20:23;5.47;;;4.63;;
14181;SDS011;7171;50.936;6.764;2022-08-19T12:22:52;5.50;;;4.80;;
14181;SDS011;7171;50.936;6.764;2022-08-19T12:25:19;6.80;;;5.43;;
14181;SDS011;7171;50.936;6.764;2022-08-19T12:27:46;7.93;;;5.85;;
14181;SDS011;7171;50.936;6.764;2022-08-19T12:30:14;7.38;;;5.88;;
14181;SDS011;7171;50.936;6.764;2022-08-19T12:32:41;6.00;;;4.63;;
14181;SDS011;7171;50.936;6.764;2022-08-19T12:35:08;6.20;;;4.47;;
14181;SDS011;7171;50.936;6.764;2022-08-19T12:37:36;8.50;;;4.70;;
14181;SDS011;7171;50.936;6.764;2022-08-19T12:40:05;5.10;;;4.03;;
14181;SDS011;7171;50.936;6.764;2022-08-19T12:42:33;4.60;;;3.78;;
14181;SDS011;7171;50.936;6.764;2022-08-19T12:45:00;4.30;;;3.05;;
14181;SDS011;7171;50.936;6.764;2022-08-19T12:47:26;4.13;;;3.72;;
14181;SDS011;7171;50.936;6.764;2022-08-19T12:49:53;5.55;;;4.38;;
14181;SDS011;7171;50.936;6.764;2022-08-19T12:52:22;6.75;;;4.18;;
14181;SDS011;7171;50.936;6.764;2022-08-19T12:54:49;5.95;;;4.25;;
14181;SDS011;7171;50.936;6.764;2022-08-19T12:57:18;5.95;;;4.57;;
14181;SDS011;7171;50.936;6.764;2022-08-19T12:59:44;5.57;;;4.35;;
14181;SDS011;7171;50.936;6.764;2022-08-19T13:02:11;4.80;;;3.83;;
14181;SDS011;7171;50.936;6.764;2022-08-19T13:04:38;4.65;;;3.60;;
14181;SDS011;7171;50.936;6.764;2022-08-19T13:07:06;4.35;;;3.78;;
14181;SDS011;7171;50.936;6.764;2022-08-19T13:09:33;4.70;;;3.90;;
14181;SDS011;7171;50.936;6.764;2022-08-19T13:12:01;4.57;;;3.53;;
14181;SDS011;7171;50.936;6.764;2022-08-19T13:14:33;7.97;;;4.53;;
14181;SDS011;7171;50.936;6.764;2022-08-19T13:17:00;5.15;;;4.00;;
14181;SDS011;7171;50.936;6.764;2022-08-19T13:19:27;5.85;;;4.32;;
14181;SDS011;7171;50.936;6.764;2022-08-19T13:21:55;5.78;;;3.65;;
14181;SDS011;7171;50.936;6.764;2022-08-19T13:24:22;5.13;;;4.15;;
14181;SDS011;7171;50.936;6.764;2022-08-19T13:26:49;5.95;;;3.75;;
14181;SDS011;7171;50.936;6.764;2022-08-19T13:29:16;4.00;;;3.33;;
14181;SDS011;7171;50.936;6.764;2022-08-19T13:32:10;5.72;;;4.20;;
14181;SDS011;7171;50.936;6.764;2022-08-19T13:34:55;5.22;;;4.20;;
14181;SDS011;7171;50.936;6.764;2022-08-19T13:37:22;5.68;;;4.10;;
14181;SDS011;7171;50.936;6.764;2022-08-19T13:40:03;4.10;;;3.35;;
14181;SDS011;7171;50.936;6.764;2022-08-19T13:42:31;4.38;;;3.55;;
14181;SDS011;7171;50.936;6.764;2022-08-19T13:44:58;5.97;;;3.90;;
14181;SDS011;7171;50.936;6.764;2022-08-19T13:47:26;6.75;;;3.58;;
14181;SDS011;7171;50.936;6.764;2022-08-19T13:49:53;5.63;;;4.20;;
14181;SDS011;7171;50.936;6.764;2022-08-19T13:52:19;4.63;;;3.55;;
14181;SDS011;7171;50.936;6.764;2022-08-19T13:54:46;4.45;;;3.13;;
14181;SDS011;7171;50.936;6.764;2022-08-19T13:57:13;3.40;;;2.92;;
14181;SDS011;7171;50.936;6.764;2022-08-19T13:59:40;4.38;;;3.45;;
14181;SDS011;7171;50.936;6.764;2022-08-19T14:02:07;3.92;;;3.35;;
14181;SDS011;7171;50.936;6.764;2022-08-19T14:04:35;3.92;;;3.38;;
14181;SDS011;7171;50.936;6.764;2022-08-19T14:07:02;4.55;;;3.75;;
14181;SDS011;7171;50.936;6.764;2022-08-19T14:09:29;5.53;;;3.33;;
14181;SDS011;7171;50.936;6.764;2022-08-19T14:11:56;3.72;;;3.35;;
14181;SDS011;7171;50.936;6.764;2022-08-19T14:14:23;4.53;;;3.10;;
14181;SDS011;7171;50.936;6.764;2022-08-19T14:16:49;4.45;;;2.88;;
14181;SDS011;7171;50.936;6.764;2022-08-19T14:19:16;3.03;;;2.70;;
14181;SDS011;7171;50.936;6.764;2022-08-19T14:21:45;4.03;;;2.70;;
14181;SDS011;7171;50.936;6.764;2022-08-19T14:24:12;2.80;;;2.53;;
14181;SDS011;7171;50.936;6.764;2022-08-19T14:26:39;2.92;;;2.50;;
14181;SDS011;7171;50.936;6.764;2022-08-19T14:29:06;2.60;;;2.15;;
14181;SDS011;7171;50.936;6.764;2022-08-19T14:31:33;3.42;;;2.50;;
14181;SDS011;7171;50.936;6.764;2022-08-19T14:33:59;4.32;;;2.20;;
14181;SDS011;7171;50.936;6.764;2022-08-19T14:36:26;2.80;;;2.38;;
14181;SDS011;7171;50.936;6.764;2022-08-19T14:38:54;3.08;;;1.98;;
14181;SDS011;7171;50.936;6.764;2022-08-19T14:41:23;2.30;;;2.10;;
14181;SDS011;7171;50.936;6.764;2022-08-19T14:43:51;2.67;;;1.92;;
14181;SDS011;7171;50.936;6.764;2022-08-19T14:46:20;2.83;;;2.00;;
14181;SDS011;7171;50.936;6.764;2022-08-19T14:48:49;3.10;;;2.22;;
14181;SDS011;7171;50.936;6.764;2022-08-19T14:51:16;2.40;;;2.08;;
14181;SDS011;7171;50.936;6.764;2022-08-19T14:53:43;2.88;;;1.90;;
14181;SDS011;7171;50.936;6.764;2022-08-19T14:56:11;1.83;;;1.73;;
14181;SDS011;7171;50.936;6.764;2022-08-19T14:58:39;2.53;;;2.20;;